Time;durP1;ratioP1;P1;durP2;ratioP2;P2;SDS_P1;SDS_P2;PMS_P1;PMS_P2;Temp;Humidity;BMP_temperature;BMP_pressure;BME280_temperature;BME280_humidity;BME280_pressure;Samples;Min_cycle;Max_cycle;Signal;HPM_P1;HPM_P2
2023/03/16 00:00:41;;;;;;;6.88;4.18;;;;;;;;;;5100714;28;20048;-72
2023/03/16 00:03:08;;;;;;;3.47;3.00;;;;;;;;;;5100903;28;20080;-72
2023/03/16 00:05:35;;;;;;;5.35;3.60;;;;;;;;;;5100402;28;20058;-72
2023/03/16 00:08:01;;;;;;;4.18;3.75;;;;;;;;;;5101137;28;20060;-72
2023/03/16 00:10:28;;;;;;;3.67;3.40;;;;;;;;;;5105170;28;20138;-72
2023/03/16 00:12:55;;;;;;;4.20;3.80;;;;;;;;;;5099937;28;20048;-72
2023/03/16 00:15:21;;;;;;;4.07;3.47;;;;;;;;;;5101706;28;20052;-72
2023/03/16 00:17:48;;;;;;;4.38;3.97;;;;;;;;;;5100381;28;20590;-72
2023/03/16 00:20:15;;;;;;;4.97;4.10;;;;;;;;;;5100627;28;20049;-72
2023/03/16 00:22:41;;;;;;;4.97;3.58;;;;;;;;;;5105830;28;20059;-72
2023/03/16 00:25:08;;;;;;;7.82;3.85;;;;;;;;;;5100671;28;20056;-72
2023/03/16 00:27:35;;;;;;;4.63;4.32;;;;;;;;;;5100171;28;20045;-72
2023/03/16 00:30:02;;;;;;;5.05;4.03;;;;;;;;;;5100525;28;20062;-72
2023/03/16 00:32:31;;;;;;;9.10;4.43;;;;;;;;;;5101608;28;20032;-72
2023/03/16 00:34:58;;;;;;;5.03;4.30;;;;;;;;;;5099981;28;20488;-72
2023/03/16 00:37:25;;;;;;;4.82;4.43;;;;;;;;;;5100675;28;20051;-72
2023/03/16 00:39:54;;;;;;;4.78;4.03;;;;;;;;;;5100689;28;20098;-72
2023/03/16 00:42:26;;;;;;;7.07;4.68;;;;;;;;;;5100068;28;20505;-72
2023/03/16 00:44:56;;;;;;;6.63;4.78;;;;;;;;;;5100638;28;20041;-72
2023/03/16 00:47:23;;;;;;;5.10;4.25;;;;;;;;;;5100811;28;20041;-72
2023/03/16 00:49:49;;;;;;;7.78;4.50;;;;;;;;;;5132065;27;20550;-71
2023/03/16 00:52:16;;;;;;;9.07;4.57;;;;;;;;;;5100775;28;20083;-72
2023/03/16 00:54:43;;;;;;;10.55;4.75;;;;;;;;;;5100021;28;20036;-72
2023/03/16 00:57:11;;;;;;;5.20;4.32;;;;;;;;;;5100036;28;20102;-72
2023/03/16 00:59:37;;;;;;;4.95;4.13;;;;;;;;;;5100843;28;20573;-72
2023/03/16 01:02:05;;;;;;;4.72;4.30;;;;;;;;;;5100163;28;20126;-71
2023/03/16 01:04:33;;;;;;;5.10;4.60;;;;;;;;;;5098998;28;20151;-72
2023/03/16 01:06:59;;;;;;;8.27;4.63;;;;;;;;;;5100753;28;20045;-72
2023/03/16 01:09:25;;;;;;;5.75;4.85;;;;;;;;;;5103518;28;20041;-72
2023/03/16 01:11:52;;;;;;;4.72;4.28;;;;;;;;;;5099977;28;20080;-71
2023/03/16 01:14:19;;;;;;;4.70;4.40;;;;;;;;;;5100484;28;20059;-72
2023/03/16 01:16:46;;;;;;;6.97;4.78;;;;;;;;;;5099663;28;20613;-72
2023/03/16 01:19:13;;;;;;;5.10;4.60;;;;;;;;;;5098862;28;20057;-72
2023/03/16 01:21:41;;;;;;;5.05;4.57;;;;;;;;;;5100512;28;20064;-71
2023/03/16 01:24:09;;;;;;;5.45;4.65;;;;;;;;;;5110056;28;20054;-72
2023/03/16 01:26:35;;;;;;;7.57;4.70;;;;;;;;;;5120975;28;20911;-72
2023/03/16 01:29:01;;;;;;;7.20;5.13;;;;;;;;;;5120799;27;20512;-71
2023/03/16 01:31:28;;;;;;;7.22;5.13;;;;;;;;;;5121081;27;20063;-72
2023/03/16 01:33:55;;;;;;;5.55;5.05;;;;;;;;;;5122601;28;20051;-71
2023/03/16 01:36:25;;;;;;;5.32;4.80;;;;;;;;;;5122729;28;20534;-72
2023/03/16 01:38:56;;;;;;;6.60;4.93;;;;;;;;;;5121939;28;20565;-72
2023/03/16 01:41:26;;;;;;;6.15;5.18;;;;;;;;;;5118880;28;20044;-71
2023/03/16 01:43:57;;;;;;;6.22;5.32;;;;;;;;;;5122054;28;20155;-72
2023/03/16 01:46:26;;;;;;;6.95;4.88;;;;;;;;;;5121483;28;20055;-72
2023/03/16 01:48:53;;;;;;;8.52;5.50;;;;;;;;;;5122053;28;20626;-71
2023/03/16 01:51:22;;;;;;;5.15;4.85;;;;;;;;;;5120721;28;20079;-71
2023/03/16 01:53:51;;;;;;;8.70;4.53;;;;;;;;;;5106673;28;20057;-71
2023/03/16 01:56:22;;;;;;;5.70;5.20;;;;;;;;;;5102018;28;20053;-71
2023/03/16 01:58:51;;;;;;;5.00;4.60;;;;;;;;;;5100930;28;20114;-71
2023/03/16 02:01:17;;;;;;;7.40;5.40;;;;;;;;;;5120703;27;20432;-71
2023/03/16 02:03:44;;;;;;;5.53;5.00;;;;;;;;;;5122432;28;20058;-71
2023/03/16 02:06:21;;;;;;;7.03;5.15;;;;;;;;;;5121424;28;20439;-71
2023/03/16 02:08:54;;;;;;;6.00;5.03;;;;;;;;;;5117737;28;20106;-71
2023/03/16 02:11:22;;;;;;;5.35;4.90;;;;;;;;;;5123585;27;20062;-70
2023/03/16 02:13:57;;;;;;;4.90;4.50;;;;;;;;;;5120012;28;20110;-70
2023/03/16 02:16:25;;;;;;;9.70;5.18;;;;;;;;;;5122126;28;20048;-71
2023/03/16 02:18:52;;;;;;;5.88;5.28;;;;;;;;;;5121668;28;20059;-71
2023/03/16 02:21:24;;;;;;;6.32;5.60;;;;;;;;;;5121823;27;20539;-71
2023/03/16 02:23:50;;;;;;;6.30;5.13;;;;;;;;;;5121873;28;21018;-72
2023/03/16 02:26:36;;;;;;;5.72;5.22;;;;;;;;;;5121337;28;20048;-71
2023/03/16 02:29:22;;;;;;;6.00;5.40;;;;;;;;;;5121790;28;20048;-71
2023/03/16 02:31:51;;;;;;;6.85;6.13;;;;;;;;;;5120406;28;20056;-71
2023/03/16 02:34:18;;;;;;;5.95;5.35;;;;;;;;;;5121323;27;20119;-71
2023/03/16 02:36:45;;;;;;;6.70;4.82;;;;;;;;;;5121760;27;20140;-70
2023/03/16 02:39:13;;;;;;;7.70;5.88;;;;;;;;;;5121578;28;20050;-71
2023/03/16 02:41:45;;;;;;;6.63;5.18;;;;;;;;;;5116209;27;20052;-70
2023/03/16 02:44:14;;;;;;;7.43;5.25;;;;;;;;;;5121513;28;20094;-71
2023/03/16 02:46:42;;;;;;;8.23;6.25;;;;;;;;;;5121486;28;20052;-70
2023/03/16 02:49:08;;;;;;;8.10;5.25;;;;;;;;;;5121248;27;20516;-71
2023/03/16 02:51:36;;;;;;;11.70;5.45;;;;;;;;;;5121210;28;20048;-71
2023/03/16 02:54:02;;;;;;;8.88;5.85;;;;;;;;;;5122538;28;20123;-71
2023/03/16 02:56:32;;;;;;;6.68;5.22;;;;;;;;;;5120794;28;20076;-70
2023/03/16 02:58:58;;;;;;;5.40;4.90;;;;;;;;;;5120414;28;20063;-71
2023/03/16 03:01:25;;;;;;;10.02;5.78;;;;;;;;;;5120612;28;20043;-70
2023/03/16 03:03:53;;;;;;;5.03;4.53;;;;;;;;;;5121207;28;20056;-71
2023/03/16 03:06:19;;;;;;;7.57;5.60;;;;;;;;;;5121734;27;20127;-70
2023/03/16 03:08:45;;;;;;;5.82;5.40;;;;;;;;;;5117625;28;20563;-71
2023/03/16 03:11:12;;;;;;;5.80;5.03;;;;;;;;;;5121258;28;20113;-70
2023/03/16 03:13:39;;;;;;;6.28;5.70;;;;;;;;;;5122632;28;20075;-71
2023/03/16 03:16:11;;;;;;;6.57;5.97;;;;;;;;;;5120107;27;20086;-70
2023/03/16 03:18:38;;;;;;;4.85;4.45;;;;;;;;;;5121115;28;20508;-71
2023/03/16 03:21:04;;;;;;;6.78;5.57;;;;;;;;;;5122124;27;20040;-70
2023/03/16 03:23:34;;;;;;;5.78;5.30;;;;;;;;;;5119537;28;20052;-70
2023/03/16 03:26:01;;;;;;;6.75;5.93;;;;;;;;;;5120689;28;20075;-71
2023/03/16 03:28:29;;;;;;;5.80;5.30;;;;;;;;;;5122491;27;20065;-70
2023/03/16 03:30:56;;;;;;;9.35;5.78;;;;;;;;;;5119756;28;20052;-72
2023/03/16 03:33:22;;;;;;;7.10;5.32;;;;;;;;;;5120739;28;20056;-70
2023/03/16 03:35:57;;;;;;;5.95;5.18;;;;;;;;;;5121646;27;20051;-72
2023/03/16 03:38:25;;;;;;;10.38;5.80;;;;;;;;;;5120637;28;20546;-72
2023/03/16 03:40:53;;;;;;;5.53;5.20;;;;;;;;;;5115550;28;20125;-71
2023/03/16 03:43:20;;;;;;;6.70;6.00;;;;;;;;;;5120884;28;20052;-71
2023/03/16 03:45:48;;;;;;;7.55;6.10;;;;;;;;;;5119769;28;20076;-71
2023/03/16 03:48:14;;;;;;;5.95;5.47;;;;;;;;;;5101402;27;20576;-71
2023/03/16 03:50:41;;;;;;;8.35;5.65;;;;;;;;;;5100778;28;20041;-71
2023/03/16 03:53:30;;;;;;;6.55;5.88;;;;;;;;;;5099551;28;20194;-71
2023/03/16 03:56:08;;;;;;;7.85;5.93;;;;;;;;;;5120201;27;20055;-71
2023/03/16 03:58:36;;;;;;;7.55;6.15;;;;;;;;;;5118992;28;20059;-71
2023/03/16 04:01:02;;;;;;;6.57;5.97;;;;;;;;;;5120324;28;20130;-71
2023/03/16 04:03:31;;;;;;;6.30;5.47;;;;;;;;;;5120511;28;20500;-71
2023/03/16 04:05:57;;;;;;;7.03;5.63;;;;;;;;;;5118983;28;20142;-70
2023/03/16 04:08:24;;;;;;;9.32;6.65;;;;;;;;;;5116442;28;20401;-70
2023/03/16 04:10:50;;;;;;;6.88;6.18;;;;;;;;;;5120091;28;20086;-70
2023/03/16 04:13:19;;;;;;;6.28;5.78;;;;;;;;;;5118268;27;20052;-71
2023/03/16 04:15:47;;;;;;;9.88;6.20;;;;;;;;;;5119908;28;20048;-70
2023/03/16 04:18:21;;;;;;;8.32;6.40;;;;;;;;;;5120100;28;20840;-70
2023/03/16 04:20:47;;;;;;;7.18;6.13;;;;;;;;;;5119214;28;20123;-70
2023/03/16 04:23:17;;;;;;;8.30;6.38;;;;;;;;;;5121484;27;20052;-70
2023/03/16 04:25:46;;;;;;;10.68;6.85;;;;;;;;;;5118871;28;20059;-71
2023/03/16 04:28:16;;;;;;;8.93;6.60;;;;;;;;;;5120281;28;20106;-70
2023/03/16 04:30:44;;;;;;;9.75;6.68;;;;;;;;;;5110738;28;20078;-71
2023/03/16 04:33:18;;;;;;;6.55;5.93;;;;;;;;;;5098879;28;20550;-71
2023/03/16 04:35:45;;;;;;;6.80;6.30;;;;;;;;;;5099598;28;20509;-71
2023/03/16 04:38:13;;;;;;;8.50;6.45;;;;;;;;;;5099289;28;20140;-71
2023/03/16 04:40:49;;;;;;;8.85;6.25;;;;;;;;;;5098440;28;20056;-71
2023/03/16 04:43:19;;;;;;;10.32;5.90;;;;;;;;;;5099452;28;20052;-71
2023/03/16 04:45:47;;;;;;;7.80;6.35;;;;;;;;;;5099181;28;20056;-70
2023/03/16 04:48:14;;;;;;;8.52;6.63;;;;;;;;;;5099250;28;20071;-70
2023/03/16 04:50:42;;;;;;;9.35;6.18;;;;;;;;;;5099365;28;20143;-71
2023/03/16 04:53:09;;;;;;;9.25;6.68;;;;;;;;;;5133242;27;20059;-70
2023/03/16 04:55:35;;;;;;;5.93;5.53;;;;;;;;;;5098671;28;20049;-71
2023/03/16 04:58:02;;;;;;;6.95;5.90;;;;;;;;;;5099072;28;20057;-70
2023/03/16 05:00:33;;;;;;;9.75;6.07;;;;;;;;;;5099316;28;20471;-71
2023/03/16 05:03:10;;;;;;;6.68;6.03;;;;;;;;;;5098126;28;20056;-71
2023/03/16 05:05:37;;;;;;;8.32;6.43;;;;;;;;;;5115086;28;20063;-71
2023/03/16 05:08:05;;;;;;;11.82;6.03;;;;;;;;;;5123762;27;20075;-71
2023/03/16 05:10:33;;;;;;;7.00;5.45;;;;;;;;;;5123322;28;20074;-71
2023/03/16 05:13:00;;;;;;;8.82;6.00;;;;;;;;;;5139811;27;20551;-71
2023/03/16 05:15:27;;;;;;;5.70;5.30;;;;;;;;;;5123719;27;20049;-71
2023/03/16 05:18:09;;;;;;;6.07;5.57;;;;;;;;;;5122767;28;20052;-71
2023/03/16 05:20:36;;;;;;;6.95;5.50;;;;;;;;;;5122924;27;20044;-71
2023/03/16 05:23:03;;;;;;;5.45;5.05;;;;;;;;;;5102410;28;20504;-71
2023/03/16 05:25:33;;;;;;;10.20;6.35;;;;;;;;;;5102166;28;20076;-70
2023/03/16 05:28:04;;;;;;;7.05;5.25;;;;;;;;;;5136627;27;20118;-71
2023/03/16 05:30:50;;;;;;;7.97;4.95;;;;;;;;;;5135156;27;20048;-70
2023/03/16 05:33:21;;;;;;;6.10;5.53;;;;;;;;;;5103459;28;20537;-71
2023/03/16 05:35:52;;;;;;;8.20;5.63;;;;;;;;;;5105996;28;20044;-71
2023/03/16 05:38:19;;;;;;;6.55;4.90;;;;;;;;;;5107421;28;20052;-71
2023/03/16 05:40:51;;;;;;;5.20;4.75;;;;;;;;;;5101996;28;20044;-71
2023/03/16 05:43:31;;;;;;;6.65;5.78;;;;;;;;;;5135742;27;20060;-71
2023/03/16 05:45:57;;;;;;;8.23;5.75;;;;;;;;;;5101609;28;20053;-71
2023/03/16 05:48:25;;;;;;;6.28;5.35;;;;;;;;;;5118596;28;20098;-71
2023/03/16 05:50:55;;;;;;;8.77;5.57;;;;;;;;;;5121296;28;20468;-70
2023/03/16 05:53:27;;;;;;;10.18;5.88;;;;;;;;;;5122573;28;20052;-71
2023/03/16 05:56:00;;;;;;;8.90;5.18;;;;;;;;;;5122288;28;20139;-71
2023/03/16 05:58:32;;;;;;;6.28;5.15;;;;;;;;;;5121442;28;20056;-72
2023/03/16 06:01:01;;;;;;;6.82;5.30;;;;;;;;;;5122402;28;20119;-72
2023/03/16 06:03:30;;;;;;;5.57;5.05;;;;;;;;;;5121956;27;20045;-71
2023/03/16 06:05:57;;;;;;;8.13;5.28;;;;;;;;;;5118257;28;20052;-71
2023/03/16 06:08:31;;;;;;;6.38;4.90;;;;;;;;;;5122417;28;20071;-72
2023/03/16 06:11:07;;;;;;;10.07;4.97;;;;;;;;;;5122484;28;20047;-71
2023/03/16 06:13:34;;;;;;;8.57;5.10;;;;;;;;;;5120985;28;20563;-71
2023/03/16 06:16:01;;;;;;;6.13;5.35;;;;;;;;;;5121787;27;20059;-72
2023/03/16 06:18:28;;;;;;;7.68;4.88;;;;;;;;;;5121941;28;20797;-71
2023/03/16 06:20:55;;;;;;;6.28;5.20;;;;;;;;;;5123398;27;20052;-71
2023/03/16 06:23:22;;;;;;;8.65;5.07;;;;;;;;;;5122356;28;20056;-71
2023/03/16 06:25:49;;;;;;;7.05;4.88;;;;;;;;;;5121162;28;20056;-71
2023/03/16 06:28:19;;;;;;;9.60;5.10;;;;;;;;;;5121411;28;20098;-72
2023/03/16 06:30:46;;;;;;;6.10;5.05;;;;;;;;;;5103701;28;20044;-71
2023/03/16 06:33:12;;;;;;;4.65;4.20;;;;;;;;;;5102160;28;20074;-71
2023/03/16 06:35:38;;;;;;;4.70;4.30;;;;;;;;;;5101722;28;20076;-71
2023/03/16 06:38:12;;;;;;;6.30;4.60;;;;;;;;;;5101470;28;20052;-71
2023/03/16 06:40:57;;;;;;;5.88;4.72;;;;;;;;;;5101610;28;20167;-71
2023/03/16 06:43:24;;;;;;;8.85;4.85;;;;;;;;;;5102574;28;20076;-72
2023/03/16 06:45:52;;;;;;;7.30;4.80;;;;;;;;;;5135933;27;20090;-72
2023/03/16 06:48:19;;;;;;;5.75;4.43;;;;;;;;;;5100414;28;20049;-71
2023/03/16 06:50:46;;;;;;;4.22;3.85;;;;;;;;;;5102733;28;20051;-71
2023/03/16 06:53:18;;;;;;;8.02;4.93;;;;;;;;;;5101193;28;20053;-72
2023/03/16 06:55:45;;;;;;;5.97;4.68;;;;;;;;;;5100501;28;20070;-71
2023/03/16 06:58:12;;;;;;;7.65;4.93;;;;;;;;;;5101836;28;20055;-72
2023/03/16 07:00:39;;;;;;;7.25;4.57;;;;;;;;;;5104126;28;20056;-70
2023/03/16 07:03:05;;;;;;;5.45;4.93;;;;;;;;;;5102745;28;20101;-69
2023/03/16 07:05:34;;;;;;;4.65;4.25;;;;;;;;;;5120599;28;20608;-72
2023/03/16 07:08:03;;;;;;;4.55;3.80;;;;;;;;;;5116778;28;20063;-71
2023/03/16 07:10:30;;;;;;;4.78;4.35;;;;;;;;;;5110379;27;20080;-72
2023/03/16 07:12:57;;;;;;;4.97;3.80;;;;;;;;;;5116317;27;20094;-72
2023/03/16 07:15:25;;;;;;;4.60;3.95;;;;;;;;;;5119825;28;20047;-72
2023/03/16 07:17:54;;;;;;;5.88;4.03;;;;;;;;;;5136223;27;20040;-71
2023/03/16 07:20:25;;;;;;;4.63;4.22;;;;;;;;;;5114382;28;20558;-72
2023/03/16 07:22:52;;;;;;;5.93;4.35;;;;;;;;;;5106907;27;20044;-72
2023/03/16 07:25:19;;;;;;;6.28;4.50;;;;;;;;;;5120068;28;20126;-71
2023/03/16 07:27:52;;;;;;;7.10;4.22;;;;;;;;;;5120045;28;20040;-72
2023/03/16 07:30:25;;;;;;;4.70;4.30;;;;;;;;;;5120415;28;20439;-71
2023/03/16 07:32:52;;;;;;;5.40;4.07;;;;;;;;;;5122182;27;20048;-72
2023/03/16 07:35:21;;;;;;;7.32;4.15;;;;;;;;;;5118743;28;20131;-71
2023/03/16 07:37:48;;;;;;;4.43;4.00;;;;;;;;;;5134376;27;20581;-72
2023/03/16 07:40:15;;;;;;;5.20;3.33;;;;;;;;;;5121068;28;20052;-71
2023/03/16 07:42:43;;;;;;;4.53;4.10;;;;;;;;;;5138820;27;20055;-72
2023/03/16 07:45:16;;;;;;;5.57;4.00;;;;;;;;;;5120162;28;20079;-71
2023/03/16 07:47:44;;;;;;;7.15;5.35;;;;;;;;;;5118068;28;20052;-71
2023/03/16 07:50:21;;;;;;;5.55;4.38;;;;;;;;;;5120583;28;20052;-71
2023/03/16 07:52:48;;;;;;;7.13;4.75;;;;;;;;;;5119680;27;20135;-71
2023/03/16 07:55:15;;;;;;;5.05;4.65;;;;;;;;;;5109480;28;20076;-72
2023/03/16 07:57:46;;;;;;;8.07;4.55;;;;;;;;;;5119854;28;20106;-71
2023/03/16 08:00:19;;;;;;;7.32;4.47;;;;;;;;;;5112427;28;20507;-71
2023/03/16 08:02:46;;;;;;;4.82;4.43;;;;;;;;;;5100297;28;20103;-71
2023/03/16 08:05:14;;;;;;;9.00;5.20;;;;;;;;;;5112316;28;20044;-71
2023/03/16 08:07:45;;;;;;;19.08;4.95;;;;;;;;;;5120663;28;20044;-72
2023/03/16 08:10:15;;;;;;;8.52;4.40;;;;;;;;;;5120619;28;20495;-71
2023/03/16 08:12:49;;;;;;;4.70;4.30;;;;;;;;;;5101380;28;20562;-72
2023/03/16 08:15:16;;;;;;;6.28;4.70;;;;;;;;;;5137460;27;20048;-71
2023/03/16 08:17:44;;;;;;;6.43;4.57;;;;;;;;;;5105197;28;20882;-71
2023/03/16 08:20:17;;;;;;;9.45;3.38;;;;;;;;;;5119635;28;20052;-71
2023/03/16 08:22:45;;;;;;;6.18;3.85;;;;;;;;;;5120375;28;20048;-71
2023/03/16 08:25:14;;;;;;;3.42;3.20;;;;;;;;;;5119505;28;20564;-71
2023/03/16 08:27:51;;;;;;;6.80;3.92;;;;;;;;;;5119015;28;20052;-71
2023/03/16 08:30:18;;;;;;;4.82;4.25;;;;;;;;;;5120160;28;20048;-72
2023/03/16 08:32:53;;;;;;;7.55;4.18;;;;;;;;;;5119416;28;20048;-71
2023/03/16 08:35:20;;;;;;;6.97;3.80;;;;;;;;;;5111755;28;20160;-70
2023/03/16 08:37:48;;;;;;;4.25;3.95;;;;;;;;;;5111317;28;20052;-71
2023/03/16 08:40:17;;;;;;;7.97;3.85;;;;;;;;;;5101263;28;20155;-71
2023/03/16 08:42:48;;;;;;;7.07;3.75;;;;;;;;;;5120005;28;20577;-71
2023/03/16 08:45:18;;;;;;;7.47;4.40;;;;;;;;;;5118468;28;20048;-71
2023/03/16 08:47:45;;;;;;;7.45;4.63;;;;;;;;;;5119211;28;20052;-71
2023/03/16 08:50:14;;;;;;;6.50;4.15;;;;;;;;;;5117911;27;20040;-71
2023/03/16 08:52:41;;;;;;;8.52;4.10;;;;;;;;;;5104776;28;20420;-71
2023/03/16 08:55:09;;;;;;;3.97;3.70;;;;;;;;;;5120212;27;20055;-71
2023/03/16 08:57:38;;;;;;;7.03;3.97;;;;;;;;;;5116296;28;20588;-71
2023/03/16 09:00:11;;;;;;;6.93;4.38;;;;;;;;;;5119990;27;20055;-71
2023/03/16 09:02:39;;;;;;;4.18;3.58;;;;;;;;;;5115384;27;20051;-71
2023/03/16 09:05:10;;;;;;;5.10;3.60;;;;;;;;;;5116372;27;20555;-71
2023/03/16 09:07:38;;;;;;;4.10;3.80;;;;;;;;;;5118183;27;20059;-71
2023/03/16 09:10:08;;;;;;;4.90;4.05;;;;;;;;;;5099824;28;20124;-71
2023/03/16 09:12:36;;;;;;;6.40;4.70;;;;;;;;;;5118715;28;20059;-71
2023/03/16 09:15:03;;;;;;;6.88;4.10;;;;;;;;;;5116787;27;20148;-72
2023/03/16 09:17:29;;;;;;;11.00;4.38;;;;;;;;;;5115086;27;20045;-71
2023/03/16 09:19:56;;;;;;;6.88;3.78;;;;;;;;;;5109966;28;20056;-71
2023/03/16 09:22:40;;;;;;;4.35;3.75;;;;;;;;;;5113750;27;20496;-71
2023/03/16 09:25:09;;;;;;;5.55;3.90;;;;;;;;;;5112433;28;20454;-72
2023/03/16 09:27:36;;;;;;;4.43;3.63;;;;;;;;;;5105634;27;20048;-71
2023/03/16 09:30:06;;;;;;;5.68;4.93;;;;;;;;;;5099358;28;20040;-71
2023/03/16 09:32:33;;;;;;;6.32;4.18;;;;;;;;;;5108907;27;20044;-71
2023/03/16 09:35:01;;;;;;;3.80;3.50;;;;;;;;;;5115856;27;20593;-72
2023/03/16 09:37:27;;;;;;;7.97;4.13;;;;;;;;;;5109526;27;20090;-72
2023/03/16 09:40:05;;;;;;;6.45;4.03;;;;;;;;;;5102007;28;20049;-72
2023/03/16 09:42:40;;;;;;;6.75;3.85;;;;;;;;;;5106953;28;20052;-72
2023/03/16 09:45:20;;;;;;;5.57;3.60;;;;;;;;;;5107406;27;20156;-71
2023/03/16 09:47:48;;;;;;;4.93;3.67;;;;;;;;;;5101928;28;20060;-72
2023/03/16 09:50:28;;;;;;;5.65;4.07;;;;;;;;;;5103494;28;20107;-72
2023/03/16 09:53:10;;;;;;;6.32;3.75;;;;;;;;;;5103421;28;20048;-72
2023/03/16 09:55:38;;;;;;;4.95;3.80;;;;;;;;;;5121122;27;20048;-72
2023/03/16 09:58:09;;;;;;;4.25;3.88;;;;;;;;;;5122672;27;20071;-72
2023/03/16 10:00:40;;;;;;;7.90;4.05;;;;;;;;;;5112821;27;20405;-72
2023/03/16 10:03:07;;;;;;;4.07;3.38;;;;;;;;;;5104488;28;20554;-73
2023/03/16 10:05:34;;;;;;;4.15;3.83;;;;;;;;;;5103935;28;20044;-72
2023/03/16 10:08:03;;;;;;;5.63;4.00;;;;;;;;;;5108815;28;20503;-72
2023/03/16 10:10:32;;;;;;;6.07;4.63;;;;;;;;;;5114705;28;20130;-73
2023/03/16 10:12:59;;;;;;;7.53;3.35;;;;;;;;;;5108935;27;20080;-73
2023/03/16 10:15:30;;;;;;;3.83;3.35;;;;;;;;;;5122099;27;20048;-73
2023/03/16 10:18:01;;;;;;;8.32;3.70;;;;;;;;;;5121331;27;20048;-72
2023/03/16 10:20:32;;;;;;;5.93;3.38;;;;;;;;;;5122483;27;20052;-72
2023/03/16 10:23:00;;;;;;;10.63;3.35;;;;;;;;;;5123501;27;20040;-73
2023/03/16 10:25:33;;;;;;;3.33;2.95;;;;;;;;;;5113138;27;20056;-72
2023/03/16 10:27:59;;;;;;;3.95;3.35;;;;;;;;;;5116189;28;20044;-72
2023/03/16 10:30:27;;;;;;;11.25;3.30;;;;;;;;;;5114164;28;20526;-71
2023/03/16 10:32:59;;;;;;;5.45;3.05;;;;;;;;;;5115484;28;20071;-72
2023/03/16 10:35:26;;;;;;;4.32;3.40;;;;;;;;;;5120574;27;20109;-72
2023/03/16 10:37:53;;;;;;;5.38;2.75;;;;;;;;;;5122907;27;20500;-72
2023/03/16 10:40:19;;;;;;;3.63;3.33;;;;;;;;;;5122442;28;20143;-72
2023/03/16 10:42:46;;;;;;;3.60;3.05;;;;;;;;;;5120583;27;20055;-72
2023/03/16 10:45:25;;;;;;;5.03;3.17;;;;;;;;;;5118040;27;20123;-72
2023/03/16 10:47:53;;;;;;;5.30;2.95;;;;;;;;;;5121475;27;20056;-72
2023/03/16 10:50:23;;;;;;;3.78;2.78;;;;;;;;;;5121371;27;20128;-73
2023/03/16 10:52:52;;;;;;;5.82;3.15;;;;;;;;;;5121888;27;20163;-73
2023/03/16 10:55:21;;;;;;;4.28;3.17;;;;;;;;;;5122866;27;20088;-73
2023/03/16 10:57:49;;;;;;;4.28;2.70;;;;;;;;;;5116825;27;20052;-73
2023/03/16 11:00:20;;;;;;;6.13;3.22;;;;;;;;;;5119107;27;20052;-73
2023/03/16 11:02:48;;;;;;;3.75;3.30;;;;;;;;;;5107523;28;20516;-73
2023/03/16 11:05:17;;;;;;;3.25;2.50;;;;;;;;;;5117497;27;20135;-72
2023/03/16 11:07:52;;;;;;;8.90;3.00;;;;;;;;;;5121865;28;20105;-70
2023/03/16 11:10:25;;;;;;;10.48;2.97;;;;;;;;;;5122768;27;20052;-72
2023/03/16 11:12:51;;;;;;;10.02;3.40;;;;;;;;;;5121230;27;20072;-72
2023/03/16 11:15:19;;;;;;;4.20;3.13;;;;;;;;;;5120623;28;20052;-71
2023/03/16 11:17:52;;;;;;;3.22;2.90;;;;;;;;;;5122356;27;20044;-71
2023/03/16 11:20:22;;;;;;;11.18;3.70;;;;;;;;;;5122383;27;20048;-71
2023/03/16 11:22:48;;;;;;;10.35;3.42;;;;;;;;;;5121369;27;20097;-72
2023/03/16 11:25:25;;;;;;;5.28;3.03;;;;;;;;;;5117447;27;20074;-72
2023/03/16 11:28:02;;;;;;;8.65;2.67;;;;;;;;;;5114746;28;20054;-71
2023/03/16 11:30:29;;;;;;;3.58;2.65;;;;;;;;;;5118001;27;20044;-71
2023/03/16 11:32:59;;;;;;;4.95;2.92;;;;;;;;;;5121573;28;20500;-71
2023/03/16 11:35:34;;;;;;;6.45;2.75;;;;;;;;;;5121616;27;20547;-72
2023/03/16 11:38:30;;;;;;;10.98;3.33;;;;;;;;;;5122098;28;20109;-71
2023/03/16 11:41:01;;;;;;;8.10;3.00;;;;;;;;;;5119604;28;20470;-71
2023/03/16 11:43:43;;;;;;;4.30;2.92;;;;;;;;;;5119570;28;20052;-71
2023/03/16 11:46:13;;;;;;;4.17;3.30;;;;;;;;;;5113328;28;20146;-72
2023/03/16 11:48:43;;;;;;;5.30;2.58;;;;;;;;;;5122089;27;20076;-71
2023/03/16 11:51:16;;;;;;;7.20;2.90;;;;;;;;;;5116581;27;20059;-71
2023/03/16 11:53:51;;;;;;;3.28;2.88;;;;;;;;;;5121628;27;20093;-72
2023/03/16 11:56:37;;;;;;;5.20;2.58;;;;;;;;;;5121476;27;20048;-71
2023/03/16 11:59:23;;;;;;;7.55;3.25;;;;;;;;;;5121075;28;20504;-70
2023/03/16 12:02:07;;;;;;;6.70;3.13;;;;;;;;;;5116770;28;20040;-71
2023/03/16 12:04:35;;;;;;;5.80;2.70;;;;;;;;;;5121131;28;20047;-71
2023/03/16 12:07:15;;;;;;;2.40;2.20;;;;;;;;;;5120469;27;20489;-71
2023/03/16 12:09:42;;;;;;;3.53;3.22;;;;;;;;;;5121903;27;20075;-72
2023/03/16 12:12:21;;;;;;;5.18;3.10;;;;;;;;;;5118372;27;20083;-71
2023/03/16 12:15:06;;;;;;;8.77;2.92;;;;;;;;;;5120974;27;20446;-71
2023/03/16 12:17:34;;;;;;;6.82;3.10;;;;;;;;;;5118802;28;20146;-71
2023/03/16 12:20:22;;;;;;;9.13;3.85;;;;;;;;;;5121360;27;20516;-72
2023/03/16 12:22:51;;;;;;;5.70;2.63;;;;;;;;;;5115318;28;20048;-71
2023/03/16 12:25:23;;;;;;;4.07;2.60;;;;;;;;;;5115932;27;20471;-71
2023/03/16 12:27:51;;;;;;;;;;;;;;;;;;5119561;27;20040;-69
2023/03/16 12:30:36;;;;;;;4.00;2.60;;;;;;;;;;5116035;28;35519;-71
2023/03/16 12:33:02;;;;;;;4.60;2.85;;;;;;;;;;5113156;28;20056;-72
2023/03/16 12:35:35;;;;;;;3.83;2.38;;;;;;;;;;5121443;28;20500;-72
2023/03/16 12:38:04;;;;;;;2.78;2.42;;;;;;;;;;5120666;27;20051;-72
2023/03/16 12:40:34;;;;;;;2.70;2.30;;;;;;;;;;5121149;28;20591;-74
2023/03/16 12:43:14;;;;;;;4.28;2.65;;;;;;;;;;5118633;27;20048;-73
2023/03/16 12:45:50;;;;;;;3.25;2.20;;;;;;;;;;5099990;28;20617;-72
2023/03/16 12:48:23;;;;;;;3.80;2.42;;;;;;;;;;5112594;28;20054;-73
2023/03/16 12:50:52;;;;;;;5.00;2.60;;;;;;;;;;5115650;28;20083;-73
2023/03/16 12:53:37;;;;;;;3.85;2.00;;;;;;;;;;5117667;27;20084;-73
2023/03/16 12:56:08;;;;;;;3.05;2.15;;;;;;;;;;5116086;27;20102;-70
2023/03/16 12:58:39;;;;;;;3.10;1.83;;;;;;;;;;5118211;27;20496;-73
2023/03/16 13:01:08;;;;;;;6.93;2.15;;;;;;;;;;5119889;27;20048;-70
2023/03/16 13:03:35;;;;;;;3.20;2.20;;;;;;;;;;5112901;27;20040;-70
2023/03/16 13:06:02;;;;;;;5.10;2.58;;;;;;;;;;5113698;28;20603;-70
2023/03/16 13:08:39;;;;;;;4.55;2.40;;;;;;;;;;5119212;27;20084;-70
2023/03/16 13:11:08;;;;;;;4.60;2.40;;;;;;;;;;5120701;27;20524;-70
2023/03/16 13:13:46;;;;;;;3.70;2.55;;;;;;;;;;5120147;28;20401;-69
2023/03/16 13:16:22;;;;;;;5.18;2.50;;;;;;;;;;5106074;27;20056;-69
2023/03/16 13:18:50;;;;;;;4.88;2.05;;;;;;;;;;5104744;27;20048;-71
2023/03/16 13:21:22;;;;;;;2.30;1.90;;;;;;;;;;5117283;28;20137;-70
2023/03/16 13:23:53;;;;;;;2.15;1.73;;;;;;;;;;5117180;28;20056;-70
2023/03/16 13:26:36;;;;;;;6.32;1.60;;;;;;;;;;5109370;27;20057;-71
2023/03/16 13:29:18;;;;;;;6.13;2.25;;;;;;;;;;5123379;27;20051;-72
2023/03/16 13:31:44;;;;;;;4.25;1.73;;;;;;;;;;5113571;27;20062;-70
2023/03/16 13:34:13;;;;;;;4.85;2.03;;;;;;;;;;5118811;27;20052;-70
2023/03/16 13:36:40;;;;;;;2.30;1.90;;;;;;;;;;5115672;27;20048;-69
2023/03/16 13:39:21;;;;;;;2.15;1.77;;;;;;;;;;5103360;27;20053;-72
2023/03/16 13:42:17;;;;;;;4.50;2.05;;;;;;;;;;5102587;28;20056;-73
2023/03/16 13:44:43;;;;;;;4.50;1.77;;;;;;;;;;5090384;28;20052;-71
2023/03/16 13:47:14;;;;;;;1.90;1.80;;;;;;;;;;5103493;28;20045;-71
2023/03/16 13:49:53;;;;;;;5.05;1.75;;;;;;;;;;5102875;28;20053;-71
2023/03/16 13:52:22;;;;;;;7.03;2.33;;;;;;;;;;5117298;27;20121;-71
2023/03/16 13:54:50;;;;;;;5.03;1.80;;;;;;;;;;5122980;27;20121;-71
2023/03/16 13:57:18;;;;;;;3.05;1.98;;;;;;;;;;5123181;27;20591;-71
2023/03/16 13:59:45;;;;;;;7.38;2.08;;;;;;;;;;5123699;27;20626;-71
2023/03/16 14:02:18;;;;;;;3.08;1.95;;;;;;;;;;5123427;27;20080;-71
2023/03/16 14:04:45;;;;;;;6.57;1.63;;;;;;;;;;5123448;27;20106;-71
2023/03/16 14:07:15;;;;;;;4.85;1.77;;;;;;;;;;5123598;27;20131;-71
2023/03/16 14:09:44;;;;;;;2.67;1.85;;;;;;;;;;5122903;27;20044;-70
2023/03/16 14:12:12;;;;;;;3.85;2.20;;;;;;;;;;5123388;27;20394;-71
2023/03/16 14:14:40;;;;;;;2.97;1.98;;;;;;;;;;5123671;27;20044;-71
2023/03/16 14:17:14;;;;;;;2.22;1.70;;;;;;;;;;5122533;27;20040;-70
2023/03/16 14:19:44;;;;;;;3.83;1.67;;;;;;;;;;5123516;27;20122;-71
2023/03/16 14:22:18;;;;;;;6.90;1.50;;;;;;;;;;5118749;27;20528;-71
2023/03/16 14:24:45;;;;;;;2.75;1.73;;;;;;;;;;5102510;28;20044;-71
2023/03/16 14:27:17;;;;;;;3.70;2.47;;;;;;;;;;5102745;28;20052;-70
2023/03/16 14:29:44;;;;;;;6.38;2.08;;;;;;;;;;5106915;28;20222;-70
2023/03/16 14:32:31;;;;;;;2.22;2.00;;;;;;;;;;5122080;27;20159;-71
2023/03/16 14:35:02;;;;;;;3.25;1.92;;;;;;;;;;5123065;27;20579;-72
2023/03/16 14:37:33;;;;;;;1.70;1.60;;;;;;;;;;5122909;27;20114;-71
2023/03/16 14:40:01;;;;;;;5.10;2.10;;;;;;;;;;5122694;27;20503;-71
2023/03/16 14:42:29;;;;;;;2.83;1.95;;;;;;;;;;5122905;27;20048;-70
2023/03/16 14:44:57;;;;;;;3.78;1.77;;;;;;;;;;5121896;27;20080;-72
2023/03/16 14:47:25;;;;;;;5.05;1.85;;;;;;;;;;5123402;27;20036;-70
2023/03/16 14:49:52;;;;;;;2.85;1.50;;;;;;;;;;5123025;27;20045;-70
2023/03/16 14:52:30;;;;;;;3.85;2.00;;;;;;;;;;5122104;27;20578;-70
2023/03/16 14:54:57;;;;;;;5.32;1.70;;;;;;;;;;5120629;28;20059;-70
2023/03/16 14:57:25;;;;;;;4.47;2.10;;;;;;;;;;5122778;27;20084;-72
2023/03/16 14:59:51;;;;;;;5.95;1.75;;;;;;;;;;5122158;27;20052;-70